createdAt,value
2024-02-26T00:02:11.003Z,8.45
2024-02-26T00:04:37.681Z,9.25
2024-02-26T00:07:04.555Z,6.97
2024-02-26T00:09:31.641Z,9.75
2024-02-26T00:11:59.276Z,7.85
2024-02-26T00:14:26.021Z,7.05
2024-02-26T00:16:52.792Z,7.70
2024-02-26T00:19:19.685Z,7.30
2024-02-26T00:21:46.474Z,6.57
2024-02-26T00:24:13.290Z,6.70
2024-02-26T00:26:40.335Z,8.55
2024-02-26T00:29:07.259Z,7.38
2024-02-26T00:31:33.965Z,8.18
2024-02-26T00:34:02.146Z,7.65
2024-02-26T00:36:28.969Z,6.73
2024-02-26T00:38:55.679Z,7.95
2024-02-26T00:41:22.564Z,8.02
2024-02-26T00:43:49.295Z,10.63
2024-02-26T00:46:15.976Z,8.10
2024-02-26T00:48:42.805Z,8.20
2024-02-26T00:51:09.976Z,10.65
2024-02-26T00:53:38.167Z,12.60
2024-02-26T00:56:05.243Z,8.10
2024-02-26T00:58:32.058Z,8.80
2024-02-26T01:00:58.793Z,10.32
2024-02-26T01:03:25.658Z,9.23
2024-02-26T01:05:55.768Z,10.68
2024-02-26T01:08:24.558Z,9.18
2024-02-26T01:10:51.798Z,7.97
2024-02-26T01:13:18.543Z,10.00
2024-02-26T01:15:45.298Z,10.55
2024-02-26T01:18:13.366Z,10.10
2024-02-26T01:20:40.276Z,8.75
2024-02-26T01:23:07.114Z,6.85
2024-02-26T01:25:33.796Z,11.57
2024-02-26T01:28:00.494Z,10.98
2024-02-26T01:30:27.271Z,8.23
2024-02-26T01:32:54.174Z,8.85
2024-02-26T01:35:21.198Z,10.45
2024-02-26T01:37:48.000Z,8.65
2024-02-26T01:40:19.184Z,10.20
2024-02-26T01:42:46.118Z,9.18
2024-02-26T01:45:22.776Z,10.45
2024-02-26T01:47:52.447Z,8.93
2024-02-26T01:50:20.675Z,10.50
2024-02-26T01:52:48.592Z,11.00
2024-02-26T01:55:16.047Z,13.77
2024-02-26T01:57:49.100Z,12.07
2024-02-26T02:00:16.501Z,10.10
2024-02-26T02:02:45.099Z,12.10
2024-02-26T02:05:13.472Z,12.40
2024-02-26T02:07:42.132Z,15.50
2024-02-26T02:10:09.307Z,16.13
2024-02-26T02:12:37.202Z,15.35
2024-02-26T02:15:04.327Z,15.90
2024-02-26T02:17:32.924Z,16.08
2024-02-26T02:19:59.885Z,14.65
2024-02-26T02:22:26.666Z,17.10
2024-02-26T02:24:53.766Z,14.45
2024-02-26T02:27:21.480Z,14.55
2024-02-26T02:29:49.676Z,14.70
2024-02-26T02:32:18.325Z,13.50
2024-02-26T02:34:46.934Z,14.55
2024-02-26T02:37:13.709Z,16.63
2024-02-26T02:39:40.468Z,12.05
2024-02-26T02:42:07.268Z,13.15
2024-02-26T02:44:34.026Z,16.05
2024-02-26T02:47:00.721Z,14.77
2024-02-26T02:49:27.758Z,16.17
2024-02-26T02:51:58.848Z,10.70
2024-02-26T02:54:25.655Z,14.65
2024-02-26T02:56:52.416Z,19.15
2024-02-26T02:59:19.302Z,18.25
2024-02-26T03:01:45.997Z,16.83
2024-02-26T03:04:13.242Z,16.30
2024-02-26T03:06:40.112Z,15.38
2024-02-26T03:09:06.999Z,17.45
2024-02-26T03:11:33.769Z,18.95
2024-02-26T03:14:00.583Z,17.67
2024-02-26T03:16:27.332Z,16.05
2024-02-26T03:18:54.212Z,15.82
2024-02-26T03:21:21.082Z,15.77
2024-02-26T03:23:48.014Z,16.45
2024-02-26T03:26:16.043Z,18.23
2024-02-26T03:28:42.783Z,17.88
2024-02-26T03:31:09.633Z,18.02
2024-02-26T03:33:36.809Z,16.42
2024-02-26T03:36:03.848Z,16.52
2024-02-26T03:38:31.475Z,12.77
2024-02-26T03:40:58.255Z,17.20
2024-02-26T03:43:25.018Z,16.50
2024-02-26T03:45:51.825Z,17.30
2024-02-26T03:48:18.640Z,13.85
2024-02-26T03:50:45.380Z,16.05
2024-02-26T03:53:14.833Z,15.65
2024-02-26T03:55:43.221Z,15.52
2024-02-26T03:58:10.467Z,15.88
2024-02-26T04:00:38.432Z,16.80
2024-02-26T04:03:05.500Z,16.02
2024-02-26T04:05:32.295Z,19.38
2024-02-26T04:07:58.941Z,16.55
2024-02-26T04:10:25.692Z,18.35
2024-02-26T04:12:52.450Z,16.70
2024-02-26T04:15:19.187Z,15.57
2024-02-26T04:17:46.349Z,17.00
2024-02-26T04:20:18.198Z,20.30
2024-02-26T04:22:45.490Z,14.82
2024-02-26T04:25:12.774Z,16.88
2024-02-26T04:27:39.652Z,17.00
2024-02-26T04:30:08.036Z,15.27
2024-02-26T04:32:35.780Z,16.50
2024-02-26T04:35:04.125Z,17.25
2024-02-26T04:37:32.576Z,17.95
2024-02-26T04:40:00.561Z,20.20
2024-02-26T04:42:27.973Z,14.10
2024-02-26T04:44:56.249Z,18.10
2024-02-26T04:47:23.590Z,18.98
2024-02-26T04:49:53.273Z,15.52
2024-02-26T04:52:21.699Z,15.40
2024-02-26T04:54:48.410Z,17.05
2024-02-26T04:57:15.176Z,13.10
2024-02-26T04:59:43.685Z,14.85
2024-02-26T05:02:11.066Z,18.73
2024-02-26T05:04:37.880Z,19.52
2024-02-26T05:07:04.956Z,15.98
2024-02-26T05:09:31.928Z,19.48
2024-02-26T05:11:58.825Z,17.38
2024-02-26T05:14:25.599Z,17.02
2024-02-26T05:16:52.402Z,15.88
2024-02-26T05:19:19.341Z,18.23
2024-02-26T05:21:48.491Z,18.70
2024-02-26T05:24:16.907Z,19.55
2024-02-26T05:26:43.959Z,22.38
2024-02-26T05:29:10.768Z,21.20
2024-02-26T05:31:37.571Z,24.38
2024-02-26T05:34:04.619Z,19.63
2024-02-26T05:36:34.604Z,20.83
2024-02-26T05:39:02.267Z,26.15
2024-02-26T05:41:29.040Z,23.92
2024-02-26T05:43:55.931Z,20.88
2024-02-26T05:46:23.619Z,22.85
2024-02-26T05:48:54.678Z,24.58
2024-02-26T05:51:21.756Z,25.90
2024-02-26T05:53:55.118Z,26.58
2024-02-26T05:56:25.192Z,28.05
2024-02-26T05:58:52.927Z,26.98
2024-02-26T06:01:21.706Z,32.15
2024-02-26T06:03:48.462Z,32.17
2024-02-26T06:06:17.062Z,34.47
2024-02-26T06:08:44.063Z,34.20
2024-02-26T06:11:11.104Z,32.22
2024-02-26T06:13:37.889Z,29.38
2024-02-26T06:16:05.150Z,20.77
2024-02-26T06:18:32.462Z,21.60
2024-02-26T06:20:59.495Z,20.90
2024-02-26T06:23:26.990Z,19.75
2024-02-26T06:25:53.699Z,18.10
2024-02-26T06:28:20.503Z,18.40
2024-02-26T06:30:47.638Z,19.60
2024-02-26T06:33:15.585Z,17.10
2024-02-26T06:35:43.212Z,20.10
2024-02-26T06:38:10.947Z,16.58
2024-02-26T06:40:37.832Z,15.93
2024-02-26T06:43:04.747Z,17.27
2024-02-26T06:45:31.898Z,18.80
2024-02-26T06:47:58.909Z,18.55
2024-02-26T06:50:25.933Z,16.25
2024-02-26T06:52:52.665Z,16.02
2024-02-26T06:55:19.392Z,14.02
2024-02-26T06:57:46.190Z,15.90
2024-02-26T07:00:16.159Z,19.10
2024-02-26T07:02:44.057Z,16.67
2024-02-26T07:05:11.175Z,19.60
2024-02-26T07:07:38.422Z,19.20
2024-02-26T07:10:07.003Z,16.90
2024-02-26T07:12:34.187Z,14.90
2024-02-26T07:15:02.106Z,12.98
2024-02-26T07:17:29.127Z,12.90
2024-02-26T07:19:55.900Z,13.55
2024-02-26T07:22:22.721Z,12.47
2024-02-26T07:24:49.429Z,15.10
2024-02-26T07:27:18.774Z,13.20
2024-02-26T07:29:46.598Z,13.25
2024-02-26T07:32:13.479Z,12.00
2024-02-26T07:34:42.903Z,11.83
2024-02-26T07:37:10.137Z,13.60
2024-02-26T07:39:38.056Z,11.95
2024-02-26T07:42:05.463Z,12.23
2024-02-26T07:44:32.340Z,10.52
2024-02-26T07:46:59.133Z,15.13
2024-02-26T07:49:25.986Z,12.00
2024-02-26T07:51:52.939Z,9.80
2024-02-26T07:54:20.671Z,10.25
2024-02-26T07:56:47.572Z,11.43
2024-02-26T07:59:15.061Z,10.60
2024-02-26T08:01:42.832Z,10.23
2024-02-26T08:04:10.130Z,10.93
2024-02-26T08:06:38.783Z,13.18
2024-02-26T08:09:06.181Z,14.15
2024-02-26T08:11:33.050Z,12.00
2024-02-26T08:14:00.498Z,14.18
2024-02-26T08:16:28.091Z,12.32
2024-02-26T08:18:55.082Z,13.45
2024-02-26T08:21:22.263Z,15.55
2024-02-26T08:23:49.056Z,9.53
2024-02-26T08:26:15.775Z,8.82
2024-02-26T08:28:42.562Z,9.38
2024-02-26T08:31:09.544Z,7.45
2024-02-26T08:33:36.838Z,8.75
2024-02-26T08:36:07.666Z,9.73
2024-02-26T08:38:36.117Z,8.60
2024-02-26T08:41:04.075Z,8.23
2024-02-26T08:43:30.815Z,10.90
2024-02-26T08:45:58.267Z,10.23
2024-02-26T08:48:25.659Z,9.30
2024-02-26T08:50:52.573Z,10.20
2024-02-26T08:53:24.637Z,9.70
2024-02-26T08:55:58.289Z,9.43
2024-02-26T08:58:25.100Z,10.32
2024-02-26T09:00:51.968Z,6.47
2024-02-26T09:03:18.848Z,8.50
2024-02-26T09:05:45.782Z,10.18
2024-02-26T09:08:12.677Z,10.23
2024-02-26T09:10:40.351Z,12.30
2024-02-26T09:13:07.258Z,13.87
2024-02-26T09:15:34.038Z,14.45
2024-02-26T09:18:01.092Z,15.38
2024-02-26T09:20:27.982Z,14.93
2024-02-26T09:22:54.914Z,14.45
2024-02-26T09:25:21.824Z,15.40
2024-02-26T09:27:49.031Z,15.48
2024-02-26T09:30:15.982Z,13.80
2024-02-26T09:32:43.136Z,14.98
2024-02-26T09:35:10.023Z,13.75
2024-02-26T09:37:38.088Z,14.20
2024-02-26T09:40:07.428Z,15.43
2024-02-26T09:42:36.578Z,13.48
2024-02-26T09:45:09.805Z,15.35
2024-02-26T09:47:37.853Z,13.35
2024-02-26T09:50:09.037Z,12.30
2024-02-26T09:52:38.763Z,14.18
2024-02-26T09:55:06.143Z,10.23
2024-02-26T09:57:33.328Z,15.02
2024-02-26T10:00:05.360Z,13.80
2024-02-26T10:02:34.075Z,12.93
2024-02-26T10:05:07.317Z,13.23
2024-02-26T10:07:37.258Z,12.88
2024-02-26T10:10:05.159Z,12.40
2024-02-26T10:12:32.704Z,15.00
2024-02-26T10:14:59.656Z,13.13
2024-02-26T10:17:27.577Z,14.23
2024-02-26T10:19:58.489Z,12.13
2024-02-26T10:22:25.221Z,15.52
2024-02-26T10:24:51.896Z,14.93
2024-02-26T10:27:20.663Z,12.87
2024-02-26T10:29:48.446Z,12.70
2024-02-26T10:32:15.435Z,13.05
2024-02-26T10:34:43.263Z,10.82
2024-02-26T10:37:10.919Z,11.93
2024-02-26T10:39:39.103Z,11.70
2024-02-26T10:42:11.078Z,13.50
2024-02-26T10:44:38.033Z,14.65
2024-02-26T10:47:05.025Z,12.52
2024-02-26T10:49:31.891Z,11.98
2024-02-26T10:51:59.442Z,9.57
2024-02-26T10:54:31.169Z,7.13
2024-02-26T10:57:00.245Z,10.23
2024-02-26T10:59:27.798Z,12.95
2024-02-26T11:01:56.925Z,8.43
2024-02-26T11:04:26.437Z,17.13
2024-02-26T11:09:24.773Z,11.00
2024-02-26T11:11:55.989Z,12.48
2024-02-26T11:14:23.253Z,15.23
2024-02-26T11:16:51.406Z,11.90
2024-02-26T11:19:19.314Z,13.10
2024-02-26T11:21:47.883Z,13.32
2024-02-26T11:24:16.577Z,14.65
2024-02-26T11:26:49.701Z,13.23
2024-02-26T11:29:22.468Z,13.70
2024-02-26T11:31:50.559Z,11.05
2024-02-26T11:34:18.490Z,11.45
2024-02-26T11:36:46.845Z,9.05
2024-02-26T11:39:16.382Z,14.63
2024-02-26T11:41:43.347Z,11.60
2024-02-26T11:44:10.277Z,14.77
2024-02-26T11:46:41.748Z,12.50
2024-02-26T11:49:27.533Z,14.35
2024-02-26T11:52:01.801Z,12.13
2024-02-26T11:54:49.867Z,16.00
2024-02-26T11:57:39.852Z,16.52
2024-02-26T12:00:15.763Z,12.75
2024-02-26T12:02:49.494Z,17.38
2024-02-26T12:05:19.240Z,12.98
2024-02-26T12:07:51.093Z,11.50
2024-02-26T12:10:29.904Z,14.25
2024-02-26T12:13:02.057Z,14.35
2024-02-26T12:15:37.581Z,15.90
2024-02-26T12:18:06.669Z,15.27
2024-02-26T12:20:33.585Z,12.33
2024-02-26T12:23:00.961Z,12.32
2024-02-26T12:25:30.289Z,11.50
2024-02-26T12:27:57.146Z,8.75
2024-02-26T12:30:24.995Z,15.80
2024-02-26T12:32:53.593Z,14.03
2024-02-26T12:35:20.736Z,15.07
2024-02-26T12:37:47.923Z,12.30
2024-02-26T12:40:15.652Z,10.63
2024-02-26T12:42:42.709Z,11.48
2024-02-26T12:45:12.903Z,14.70
2024-02-26T12:47:40.444Z,10.93
2024-02-26T12:50:09.875Z,11.68
2024-02-26T12:52:40.887Z,12.48
2024-02-26T12:55:09.938Z,11.55
2024-02-26T12:57:40.408Z,9.03
2024-02-26T13:00:10.881Z,11.55
2024-02-26T13:02:38.792Z,10.60
2024-02-26T13:05:08.754Z,9.63
2024-02-26T13:07:41.577Z,14.00
2024-02-26T13:10:09.228Z,11.17
2024-02-26T13:12:35.941Z,10.80
2024-02-26T13:15:04.500Z,10.63
2024-02-26T13:17:35.256Z,10.27
2024-02-26T13:20:02.181Z,11.70
2024-02-26T13:22:31.277Z,14.43
2024-02-26T13:24:58.597Z,12.48
2024-02-26T13:27:25.898Z,11.57
2024-02-26T13:30:13.278Z,16.73
2024-02-26T13:32:42.114Z,13.15
2024-02-26T13:35:13.780Z,11.77
2024-02-26T13:37:41.357Z,12.30
2024-02-26T13:40:10.183Z,15.73
2024-02-26T13:42:38.159Z,11.88
2024-02-26T13:45:09.587Z,11.15
2024-02-26T13:47:36.858Z,12.60
2024-02-26T13:50:04.331Z,10.13
2024-02-26T13:52:34.048Z,9.68
2024-02-26T13:55:00.974Z,11.00
2024-02-26T13:57:28.508Z,11.70
2024-02-26T13:59:55.697Z,9.93
2024-02-26T14:02:22.673Z,10.68
2024-02-26T14:04:49.441Z,10.25
2024-02-26T14:07:18.487Z,12.60
2024-02-26T14:09:50.311Z,13.52
2024-02-26T14:12:20.128Z,11.83
2024-02-26T14:14:50.334Z,12.80
2024-02-26T14:17:17.176Z,10.63
2024-02-26T14:19:49.269Z,11.98
2024-02-26T14:22:18.766Z,11.15
2024-02-26T14:24:45.486Z,11.70
2024-02-26T14:27:18.216Z,10.00
2024-02-26T14:29:45.322Z,16.83
2024-02-26T14:32:12.116Z,13.50
2024-02-26T14:34:39.053Z,15.23
2024-02-26T14:37:06.337Z,11.83
2024-02-26T14:39:33.748Z,15.63
2024-02-26T14:42:02.358Z,14.30
2024-02-26T14:44:29.083Z,11.38
2024-02-26T14:46:55.817Z,14.48
2024-02-26T14:49:23.135Z,11.77
2024-02-26T14:51:49.993Z,13.23
2024-02-26T14:54:16.879Z,10.90
2024-02-26T14:56:43.743Z,12.63
2024-02-26T14:59:10.535Z,13.00
2024-02-26T15:01:37.272Z,11.93
2024-02-26T15:04:05.159Z,12.07
2024-02-26T15:06:32.029Z,17.55
2024-02-26T15:08:58.851Z,13.10
2024-02-26T15:11:25.601Z,11.55
2024-02-26T15:13:53.632Z,12.20
2024-02-26T15:16:22.037Z,10.45
2024-02-26T15:18:49.106Z,13.35
2024-02-26T15:21:16.105Z,12.38
2024-02-26T15:23:54.852Z,11.93
2024-02-26T15:26:28.936Z,12.07
2024-02-26T15:28:55.668Z,12.70
2024-02-26T15:31:22.380Z,11.75
2024-02-26T15:33:49.243Z,13.68
2024-02-26T15:36:16.269Z,10.98
2024-02-26T15:38:43.014Z,13.43
2024-02-26T15:41:15.975Z,16.38
2024-02-26T15:43:42.737Z,17.05
2024-02-26T15:46:09.531Z,15.75
2024-02-26T15:48:39.779Z,13.57
2024-02-26T15:51:06.859Z,13.90
2024-02-26T15:53:33.873Z,16.67
2024-02-26T15:56:01.478Z,12.52
2024-02-26T15:58:28.259Z,16.58
2024-02-26T16:00:56.660Z,16.45
2024-02-26T16:03:23.511Z,16.10
2024-02-26T16:05:50.366Z,16.13
2024-02-26T16:08:23.451Z,17.90
2024-02-26T16:10:50.389Z,14.32
2024-02-26T16:13:20.794Z,12.68
2024-02-26T16:16:04.204Z,18.13
2024-02-26T16:18:32.883Z,15.10
2024-02-26T16:21:00.160Z,17.13
2024-02-26T16:23:27.104Z,14.65
2024-02-26T16:25:54.021Z,11.88
2024-02-26T16:28:22.694Z,10.37
2024-02-26T16:30:49.535Z,14.82
2024-02-26T16:33:16.371Z,11.77
2024-02-26T16:35:45.029Z,13.27
2024-02-26T16:38:12.256Z,10.60
2024-02-26T16:40:41.796Z,14.57
2024-02-26T16:43:08.745Z,14.93
2024-02-26T16:45:35.601Z,14.95
2024-02-26T16:48:02.404Z,14.18
2024-02-26T16:50:29.283Z,13.07
2024-02-26T16:52:56.941Z,15.50
2024-02-26T16:55:25.652Z,11.82
2024-02-26T16:57:54.618Z,12.65
2024-02-26T17:00:22.154Z,14.40
2024-02-26T17:02:49.894Z,17.25
2024-02-26T17:05:16.902Z,19.13
2024-02-26T17:07:45.999Z,15.70
2024-02-26T17:10:13.339Z,15.95
2024-02-26T17:12:40.273Z,15.40
2024-02-26T17:15:07.565Z,15.82
2024-02-26T17:17:35.087Z,16.83
2024-02-26T17:20:02.335Z,17.40
2024-02-26T17:22:29.171Z,17.35
2024-02-26T17:24:55.870Z,17.45
2024-02-26T17:27:23.046Z,19.83
2024-02-26T17:29:50.408Z,18.40
2024-02-26T17:32:17.177Z,16.25
2024-02-26T17:34:44.291Z,19.27
2024-02-26T17:37:12.135Z,13.70
2024-02-26T17:39:38.925Z,19.67
2024-02-26T17:42:05.826Z,15.85
2024-02-26T17:44:40.740Z,19.20
2024-02-26T17:47:07.972Z,12.40
2024-02-26T17:49:35.178Z,16.17
2024-02-26T17:52:02.091Z,11.15
2024-02-26T17:54:30.135Z,12.23
2024-02-26T17:56:58.446Z,14.63
2024-02-26T17:59:28.635Z,17.42
2024-02-26T18:01:55.395Z,20.13
2024-02-26T18:04:22.128Z,14.07
2024-02-26T18:06:48.998Z,13.60
2024-02-26T18:09:15.876Z,15.25
2024-02-26T18:11:48.768Z,12.50
2024-02-26T18:14:15.691Z,18.30
2024-02-26T18:16:42.535Z,20.88
2024-02-26T18:19:11.533Z,17.00
2024-02-26T18:21:38.384Z,15.70
2024-02-26T18:24:05.718Z,15.88
2024-02-26T18:26:35.389Z,14.38
2024-02-26T18:29:02.068Z,18.38
2024-02-26T18:31:30.109Z,18.77
2024-02-26T18:33:57.023Z,18.38
2024-02-26T18:36:24.852Z,18.08
2024-02-26T18:38:52.936Z,21.25
2024-02-26T18:41:23.898Z,24.05
2024-02-26T18:43:55.560Z,16.10
2024-02-26T18:46:22.431Z,13.73
2024-02-26T18:48:49.704Z,16.45
2024-02-26T18:51:16.672Z,15.73
2024-02-26T18:53:43.436Z,20.38
2024-02-26T18:56:10.551Z,17.25
2024-02-26T18:58:37.323Z,14.57
2024-02-26T19:01:04.748Z,19.48
2024-02-26T19:03:32.642Z,21.08
2024-02-26T19:06:04.490Z,19.05
2024-02-26T19:08:31.289Z,18.80
2024-02-26T19:10:59.906Z,15.23
2024-02-26T19:13:27.482Z,15.43
2024-02-26T19:15:54.196Z,15.60
2024-02-26T19:18:20.992Z,18.00
2024-02-26T19:20:49.067Z,16.05
2024-02-26T19:23:15.748Z,18.30
2024-02-26T19:25:45.557Z,16.65
2024-02-26T19:28:14.062Z,18.30
2024-02-26T19:30:40.806Z,13.02
2024-02-26T19:33:08.687Z,20.75
2024-02-26T19:35:35.656Z,17.48
2024-02-26T19:38:02.440Z,14.27
2024-02-26T19:40:29.232Z,19.27
2024-02-26T19:42:56.018Z,18.25
2024-02-26T19:45:24.429Z,20.20
2024-02-26T19:47:51.228Z,18.17
2024-02-26T19:50:18.088Z,19.83
2024-02-26T19:52:45.130Z,17.77
2024-02-26T19:55:15.602Z,22.50
2024-02-26T19:57:42.443Z,16.17
2024-02-26T20:00:11.606Z,15.85
2024-02-26T20:02:38.349Z,16.63
2024-02-26T20:05:05.533Z,18.60
2024-02-26T20:07:39.679Z,16.42
2024-02-26T20:10:07.315Z,17.80
2024-02-26T20:12:35.193Z,17.20
2024-02-26T20:15:03.283Z,15.52
2024-02-26T20:17:30.094Z,17.27
2024-02-26T20:19:59.355Z,23.17
2024-02-26T20:22:26.686Z,21.57
2024-02-26T20:24:53.595Z,21.55
2024-02-26T20:27:20.381Z,22.98
2024-02-26T20:29:47.653Z,23.10
2024-02-26T20:32:14.382Z,18.75
2024-02-26T20:34:41.680Z,16.50
2024-02-26T20:37:08.603Z,18.63
2024-02-26T20:39:35.427Z,20.23
2024-02-26T20:42:02.344Z,19.92
2024-02-26T20:44:29.153Z,20.17
2024-02-26T20:47:00.185Z,20.57
2024-02-26T20:49:27.585Z,21.42
2024-02-26T20:51:55.515Z,18.95
2024-02-26T20:54:22.462Z,22.20
2024-02-26T20:56:51.143Z,17.83
2024-02-26T20:59:19.747Z,20.38
2024-02-26T21:01:46.490Z,15.43
2024-02-26T21:04:14.923Z,21.48
2024-02-26T21:06:41.772Z,18.63
2024-02-26T21:09:09.891Z,22.25
2024-02-26T21:11:37.955Z,26.02
2024-02-26T21:14:05.410Z,26.17
2024-02-26T21:16:32.162Z,20.15
2024-02-26T21:19:00.729Z,26.73
2024-02-26T21:21:29.806Z,20.85
2024-02-26T21:23:59.569Z,20.90
2024-02-26T21:26:29.630Z,21.35
2024-02-26T21:28:56.786Z,27.17
2024-02-26T21:31:23.619Z,24.88
2024-02-26T21:33:51.159Z,22.13
2024-02-26T21:36:20.883Z,22.48
2024-02-26T21:38:50.751Z,24.10
2024-02-26T21:41:20.406Z,23.83
2024-02-26T21:43:52.156Z,25.95
2024-02-26T21:46:20.743Z,25.45
2024-02-26T21:48:48.017Z,27.80
2024-02-26T21:51:14.989Z,22.70
2024-02-26T21:53:42.321Z,26.10
2024-02-26T21:56:09.713Z,28.02
2024-02-26T21:58:36.560Z,23.63
2024-02-26T22:01:04.099Z,19.93
2024-02-26T22:03:31.109Z,19.77
2024-02-26T22:05:57.987Z,21.98
2024-02-26T22:08:26.375Z,22.45
2024-02-26T22:10:54.889Z,20.27
2024-02-26T22:13:22.505Z,23.63
2024-02-26T22:15:49.438Z,21.40
2024-02-26T22:18:16.294Z,23.33
2024-02-26T22:20:43.185Z,19.52
2024-02-26T22:23:09.973Z,20.58
2024-02-26T22:25:37.547Z,22.20
2024-02-26T22:28:04.641Z,23.20
2024-02-26T22:30:31.364Z,19.63
2024-02-26T22:32:58.414Z,22.60
2024-02-26T22:35:25.646Z,22.45
2024-02-26T22:37:52.426Z,28.58
2024-02-26T22:40:19.126Z,32.75
2024-02-26T22:42:45.921Z,24.70
2024-02-26T22:45:14.570Z,28.25
2024-02-26T22:47:41.965Z,32.75
2024-02-26T22:50:09.816Z,32.47
2024-02-26T22:52:36.608Z,30.27
2024-02-26T22:55:04.288Z,23.25
2024-02-26T22:57:31.174Z,28.02
2024-02-26T22:59:58.057Z,21.13
2024-02-26T23:02:24.836Z,20.08
2024-02-26T23:04:51.543Z,22.35
2024-02-26T23:07:18.328Z,22.98
2024-02-26T23:09:45.126Z,22.13
2024-02-26T23:12:11.844Z,23.73
2024-02-26T23:14:38.614Z,33.22
2024-02-26T23:17:05.336Z,27.25
2024-02-26T23:19:34.799Z,26.98
2024-02-26T23:22:01.786Z,28.50
2024-02-26T23:24:28.543Z,34.35
2024-02-26T23:26:56.924Z,26.08
2024-02-26T23:29:23.711Z,28.20
2024-02-26T23:31:50.364Z,25.35
2024-02-26T23:34:17.089Z,26.75
2024-02-26T23:36:43.944Z,26.48
2024-02-26T23:39:10.818Z,20.85
2024-02-26T23:41:37.725Z,26.70
2024-02-26T23:44:04.616Z,28.25
2024-02-26T23:46:34.531Z,26.98
2024-02-26T23:49:01.377Z,24.58
2024-02-26T23:51:28.289Z,26.02
2024-02-26T23:53:55.156Z,24.90
2024-02-26T23:56:22.031Z,22.52
2024-02-26T23:58:48.949Z,22.80
